Time;durP1;ratioP1;P1;durP2;ratioP2;P2;SDS_P1;SDS_P2;PMS_P1;PMS_P2;Temp;Humidity;BMP_temperature;BMP_pressure;BME280_temperature;BME280_humidity;BME280_pressure;Samples;Min_cycle;Max_cycle;Signal;HPM_P1;HPM_P2
2022/08/06 00:00:41;;;;;;;9.20;2.90;;;;;;;24.50;93.43;94441.00;5002540;28;20026;-88
2022/08/06 00:03:07;;;;;;;3.78;2.72;;;;;;;24.52;93.77;94439.53;5018618;28;20029;-88
2022/08/06 00:05:33;;;;;;;3.72;2.50;;;;;;;24.41;94.98;94442.03;5002430;28;20026;-88
2022/08/06 00:07:58;;;;;;;9.93;2.78;;;;;;;24.50;93.07;94438.34;5018523;28;20100;-89
2022/08/06 00:10:24;;;;;;;4.90;2.35;;;;;;;24.39;94.22;94438.16;5002090;28;20045;-89
2022/08/06 00:12:49;;;;;;;4.63;2.42;;;;;;;24.45;93.16;94444.00;5002163;28;20034;-89
2022/08/06 00:15:17;;;;;;;2.70;2.50;;;;;;;24.44;93.12;94435.16;5018915;28;20033;-88
2022/08/06 00:17:43;;;;;;;7.85;2.78;;;;;;;24.45;92.68;94447.44;5002480;28;20068;-88
2022/08/06 00:20:10;;;;;;;4.05;2.50;;;;;;;24.51;92.70;94442.56;5002181;28;20033;-89
2022/08/06 00:22:35;;;;;;;3.40;2.28;;;;;;;24.55;91.91;94430.03;5002327;28;20092;-89
2022/08/06 00:25:01;;;;;;;5.47;2.22;;;;;;;24.57;91.70;94430.44;5018231;28;20057;-89
2022/08/06 00:27:29;;;;;;;4.68;2.55;;;;;;;24.69;90.85;94427.59;5002033;28;20038;-88
2022/08/06 00:29:56;;;;;;;3.55;2.20;;;;;;;24.61;91.77;94428.59;5017232;28;20432;-89
2022/08/06 00:32:22;;;;;;;8.00;2.50;;;;;;;24.53;92.68;94422.34;5002196;28;20398;-89
2022/08/06 00:34:47;;;;;;;3.25;2.60;;;;;;;24.73;91.42;94432.25;5017954;28;20034;-89
2022/08/06 00:37:13;;;;;;;5.78;2.60;;;;;;;24.67;92.16;94434.44;5018030;28;20029;-89
2022/08/06 00:39:40;;;;;;;3.45;2.30;;;;;;;24.82;91.58;94433.56;5017959;28;20044;-88
2022/08/06 00:42:08;;;;;;;3.97;2.63;;;;;;;23.81;100.00;94431.66;5017896;28;20041;-87
2022/08/06 00:44:35;;;;;;;2.92;2.45;;;;;;;23.79;100.00;94428.53;5002024;28;20088;-89
2022/08/06 00:47:00;;;;;;;3.80;2.40;;;;;;;23.53;100.00;94435.25;5017832;28;20156;-89
2022/08/06 00:49:26;;;;;;;3.88;2.38;;;;;;;23.69;100.00;94433.31;5001681;28;20080;-89
2022/08/06 00:51:51;;;;;;;5.60;2.63;;;;;;;23.53;100.00;94435.25;5001621;28;20116;-89
2022/08/06 00:54:19;;;;;;;3.40;2.40;;;;;;;23.39;100.00;94427.72;5017582;28;20056;-89
2022/08/06 00:56:45;;;;;;;9.00;2.55;;;;;;;23.49;100.00;94434.41;5001828;28;20096;-89
2022/08/06 00:59:10;;;;;;;4.00;2.50;;;;;;;23.17;100.00;94427.19;5001519;28;20085;-89
2022/08/06 01:01:36;;;;;;;5.05;2.70;;;;;;;23.32;100.00;94431.00;5001403;28;20034;-89
2022/08/06 01:04:02;;;;;;;8.40;2.78;;;;;;;23.43;100.00;94423.97;5017530;28;20104;-88
2022/08/06 01:06:27;;;;;;;4.07;2.28;;;;;;;23.66;100.00;94430.56;5017431;28;20132;-89
2022/08/06 01:08:53;;;;;;;7.95;2.70;;;;;;;23.71;100.00;94433.72;5017424;28;20030;-88
2022/08/06 01:11:27;;;;;;;5.53;2.88;;;;;;;23.93;100.00;94425.38;5017919;28;20420;-89
2022/08/06 01:13:52;;;;;;;4.65;2.92;;;;;;;24.00;100.00;94426.28;5001093;28;20574;-89
2022/08/06 01:16:30;;;;;;;8.48;2.65;;;;;;;24.12;100.00;94432.66;5017374;28;20060;-89
2022/08/06 01:19:01;;;;;;;3.00;2.25;;;;;;;24.13;99.56;94423.50;5017187;28;20347;-89
2022/08/06 01:21:39;;;;;;;4.38;2.30;;;;;;;24.16;98.99;94424.72;5017235;28;20025;-89
2022/08/06 01:24:30;;;;;;;3.78;2.47;;;;;;;24.19;99.40;94424.78;5017446;28;20026;-89
2022/08/06 01:27:20;;;;;;;4.75;2.28;;;;;;;24.01;100.00;94421.72;5017115;28;20121;-89
2022/08/06 01:29:50;;;;;;;6.32;2.95;;;;;;;23.72;100.00;94421.91;5016702;28;20377;-89
2022/08/06 01:32:25;;;;;;;3.35;2.40;;;;;;;23.43;100.00;94423.22;5016939;28;20025;-89
2022/08/06 01:34:56;;;;;;;5.43;2.50;;;;;;;23.38;100.00;94421.56;5000800;28;20490;-89
2022/08/06 01:37:47;;;;;;;3.72;2.55;;;;;;;23.44;100.00;94422.09;5016849;28;20041;-88
2022/08/06 01:40:22;;;;;;;4.22;2.53;;;;;;;23.19;100.00;94419.59;5017662;28;20091;-89
2022/08/06 01:42:48;;;;;;;3.40;2.40;;;;;;;22.91;100.00;94422.38;5000626;28;20497;-89
2022/08/06 01:45:15;;;;;;;3.08;2.70;;;;;;;22.77;100.00;94420.91;5016501;28;20030;-88
2022/08/06 01:47:43;;;;;;;4.50;2.55;;;;;;;22.63;100.00;94423.97;5000570;28;20061;-89
2022/08/06 01:50:09;;;;;;;4.72;2.85;;;;;;;22.71;100.00;94423.06;5016673;28;20029;-89
2022/08/06 01:52:37;;;;;;;2.90;2.60;;;;;;;22.63;100.00;94426.66;5016574;28;20037;-89
2022/08/06 01:55:06;;;;;;;6.45;2.63;;;;;;;22.46;100.00;94425.06;5016630;28;20026;-88
2022/08/06 01:57:33;;;;;;;3.60;2.70;;;;;;;22.53;100.00;94421.84;5016540;28;20026;-88
2022/08/06 02:00:00;;;;;;;3.58;2.47;;;;;;;22.57;100.00;94425.38;5000318;28;20048;-88
2022/08/06 02:02:27;;;;;;;3.40;2.33;;;;;;;22.73;100.00;94422.69;5016408;28;20377;-88
2022/08/06 02:04:56;;;;;;;6.93;3.03;;;;;;;22.67;100.00;94432.09;4999910;28;20037;-88
2022/08/06 02:07:24;;;;;;;8.95;2.67;;;;;;;22.68;100.00;94425.63;5016063;28;20025;-88
2022/08/06 02:09:50;;;;;;;5.60;2.90;;;;;;;22.65;100.00;94426.31;5020104;28;20438;-89
2022/08/06 02:12:25;;;;;;;5.35;2.83;;;;;;;22.91;100.00;94425.03;5030811;28;20436;-88
2022/08/06 02:15:01;;;;;;;4.28;2.92;;;;;;;22.74;100.00;94429.59;5009757;28;20035;-89
2022/08/06 02:17:34;;;;;;;4.15;2.47;;;;;;;22.79;100.00;94425.88;5020007;28;20037;-89
2022/08/06 02:20:00;;;;;;;3.72;2.40;;;;;;;22.87;100.00;94425.72;5019489;28;20342;-88
2022/08/06 02:22:31;;;;;;;5.45;2.55;;;;;;;22.87;100.00;94433.72;5035822;28;20048;-88
2022/08/06 02:25:10;;;;;;;5.80;2.53;;;;;;;22.84;100.00;94433.66;5035663;28;20022;-89
2022/08/06 02:27:39;;;;;;;3.50;2.47;;;;;;;22.96;100.00;94436.25;5019923;28;20112;-89
2022/08/06 02:30:05;;;;;;;3.15;2.50;;;;;;;22.97;100.00;94435.13;5019518;28;20324;-89
2022/08/06 02:32:33;;;;;;;8.73;2.90;;;;;;;23.07;100.00;94443.72;5035526;28;20034;-89
2022/08/06 02:35:01;;;;;;;5.70;2.72;;;;;;;23.06;100.00;94431.50;5035732;28;20084;-89
2022/08/06 02:37:30;;;;;;;6.53;2.75;;;;;;;23.41;100.00;94431.56;5036842;28;20075;-89
2022/08/06 02:40:02;;;;;;;5.10;2.75;;;;;;;23.17;100.00;94424.50;5019047;28;20402;-88
2022/08/06 02:42:35;;;;;;;8.18;2.90;;;;;;;22.81;100.00;94424.44;5035740;28;20017;-88
2022/08/06 02:45:09;;;;;;;8.77;2.63;;;;;;;22.84;100.00;94422.97;5019448;28;20029;-89
2022/08/06 02:47:37;;;;;;;;;;;;;;;22.86;100.00;94423.41;5019774;28;20037;-88
2022/08/06 02:50:04;;;;;;;4.38;2.67;;;;;;;22.82;100.00;94425.22;5036513;28;19944;-89
2022/08/06 02:52:53;;;;;;;5.50;2.90;;;;;;;22.77;100.00;94417.44;5035474;28;20060;-88
2022/08/06 02:55:20;;;;;;;3.85;2.85;;;;;;;22.76;100.00;94423.91;5039744;28;20365;-88
2022/08/06 02:57:50;;;;;;;3.58;2.72;;;;;;;22.93;100.00;94420.88;5023331;28;20029;-88
2022/08/06 03:00:16;;;;;;;4.85;2.40;;;;;;;23.33;100.00;94427.19;5039867;28;20022;-88
2022/08/06 03:02:44;;;;;;;7.00;2.90;;;;;;;23.44;100.00;94422.84;5039519;28;20047;-89
2022/08/06 03:05:13;;;;;;;4.88;2.72;;;;;;;23.42;100.00;94419.00;5022964;28;20037;-88
2022/08/06 03:07:40;;;;;;;3.85;2.97;;;;;;;23.29;100.00;94420.97;5039488;28;20027;-88
2022/08/06 03:10:06;;;;;;;7.68;3.03;;;;;;;23.16;100.00;94418.38;5023153;28;20032;-89
2022/08/06 03:12:32;;;;;;;5.68;2.90;;;;;;;23.09;100.00;94415.56;5039258;28;20068;-88
2022/08/06 03:15:03;;;;;;;5.25;3.08;;;;;;;23.06;100.00;94418.13;5039336;28;20434;-89
2022/08/06 03:17:31;;;;;;;5.15;2.88;;;;;;;22.94;100.00;94406.41;5023717;28;20030;-89
2022/08/06 03:20:02;;;;;;;4.47;2.80;;;;;;;22.90;100.00;94410.91;5039250;28;20048;-89
2022/08/06 03:22:31;;;;;;;7.43;3.00;;;;;;;23.02;100.00;94412.69;5039084;28;20018;-89
2022/08/06 03:25:00;;;;;;;5.80;3.17;;;;;;;23.16;100.00;94414.94;5039348;28;20381;-89
2022/08/06 03:27:28;;;;;;;4.97;2.70;;;;;;;23.13;100.00;94413.72;5017986;28;20034;-91
2022/08/06 03:29:56;;;;;;;5.63;2.80;;;;;;;23.17;100.00;94413.81;5020710;28;20136;-89
2022/08/06 03:32:22;;;;;;;4.05;2.78;;;;;;;23.00;100.00;94417.63;5019160;28;20386;-89
2022/08/06 03:34:48;;;;;;;5.85;2.80;;;;;;;22.83;100.00;94416.84;5019364;28;20026;-89
2022/08/06 03:37:22;;;;;;;8.40;3.40;;;;;;;22.44;100.00;94419.25;5019140;28;20021;-89
2022/08/06 03:39:50;;;;;;;7.15;2.90;;;;;;;22.28;100.00;94413.91;5019299;28;20123;-89
2022/08/06 03:42:16;;;;;;;4.75;2.95;;;;;;;22.14;100.00;94407.06;5002906;28;20025;-89
2022/08/06 03:44:42;;;;;;;3.45;2.90;;;;;;;22.09;100.00;94409.97;5018996;28;20056;-89
2022/08/06 03:47:24;;;;;;;7.50;3.28;;;;;;;22.17;100.00;94409.06;5002738;28;20030;-89
2022/08/06 03:50:07;;;;;;;5.07;3.00;;;;;;;22.25;100.00;94404.69;5019192;28;20432;-88
2022/08/06 03:52:38;;;;;;;10.93;3.33;;;;;;;22.41;100.00;94410.06;5002740;28;20029;-88
2022/08/06 03:55:06;;;;;;;3.70;3.10;;;;;;;22.51;100.00;94413.38;5018600;28;20021;-89
2022/08/06 03:57:35;;;;;;;5.80;2.72;;;;;;;22.56;100.00;94408.56;5019029;28;20026;-89
2022/08/06 04:00:02;;;;;;;3.97;2.95;;;;;;;22.63;100.00;94412.53;5018707;28;20022;-89
2022/08/06 04:02:37;;;;;;;6.85;3.15;;;;;;;22.76;100.00;94408.66;5002734;28;20018;-89
2022/08/06 04:05:03;;;;;;;7.22;3.40;;;;;;;22.84;100.00;94405.03;5017370;28;20104;-89
2022/08/06 04:07:32;;;;;;;5.07;3.10;;;;;;;22.92;100.00;94414.00;5018554;28;20072;-89
2022/08/06 04:09:59;;;;;;;5.95;2.88;;;;;;;23.04;100.00;94413.16;5018510;28;20037;-90
2022/08/06 04:12:24;;;;;;;6.20;3.20;;;;;;;23.10;100.00;94414.44;5018149;28;20034;-88
2022/08/06 04:14:50;;;;;;;5.10;3.05;;;;;;;22.97;100.00;94412.97;5002242;28;20037;-88
2022/08/06 04:17:16;;;;;;;9.77;3.35;;;;;;;22.78;100.00;94421.66;5018058;28;20452;-89
2022/08/06 04:19:42;;;;;;;4.47;2.90;;;;;;;22.73;100.00;94417.34;5018022;28;20108;-89
2022/08/06 04:22:08;;;;;;;4.80;3.42;;;;;;;22.57;100.00;94412.78;5002166;28;20435;-89
2022/08/06 04:24:33;;;;;;;9.02;3.33;;;;;;;22.73;100.00;94415.47;5002073;28;20033;-91
2022/08/06 04:27:02;;;;;;;5.25;3.50;;;;;;;22.71;100.00;94423.06;5018534;28;20056;-93
2022/08/06 04:29:28;;;;;;;4.53;2.90;;;;;;;22.82;100.00;94425.97;5002318;28;20029;-91
2022/08/06 04:31:54;;;;;;;5.35;2.55;;;;;;;22.80;100.00;94422.88;5001948;28;20462;-90
2022/08/06 04:34:24;;;;;;;4.32;2.90;;;;;;;22.63;100.00;94420.56;5017578;28;20041;-90
2022/08/06 04:36:53;;;;;;;2.90;2.50;;;;;;;22.74;100.00;94421.59;5001615;28;20411;-90
2022/08/06 04:39:20;;;;;;;6.65;2.90;;;;;;;22.77;100.00;94428.13;5001827;28;20040;-90
2022/08/06 04:41:46;;;;;;;5.47;2.90;;;;;;;22.74;100.00;94426.94;5001844;28;20414;-90
2022/08/06 04:44:12;;;;;;;7.00;2.92;;;;;;;22.57;100.00;94426.13;5001363;28;20032;-89
2022/08/06 04:46:37;;;;;;;9.98;3.35;;;;;;;22.42;100.00;94429.50;5001492;28;20507;-89
2022/08/06 04:49:03;;;;;;;6.80;3.20;;;;;;;22.35;100.00;94429.34;5001558;28;20026;-87
2022/08/06 04:51:29;;;;;;;10.27;3.03;;;;;;;22.20;100.00;94428.16;5001332;28;20025;-90
2022/08/06 04:53:54;;;;;;;7.82;3.10;;;;;;;22.03;100.00;94430.00;5001171;28;20047;-89
2022/08/06 04:56:20;;;;;;;8.07;3.03;;;;;;;22.11;100.00;94426.44;5019635;28;20030;-90
2022/08/06 04:58:48;;;;;;;6.05;3.20;;;;;;;22.09;100.00;94431.31;5018462;28;20030;-89
2022/08/06 05:01:13;;;;;;;5.55;2.90;;;;;;;22.31;100.00;94427.34;5001398;28;20030;-90
2022/08/06 05:03:39;;;;;;;4.55;2.90;;;;;;;22.53;100.00;94432.50;5000995;28;20029;-89
2022/08/06 05:06:33;;;;;;;4.32;2.80;;;;;;;22.61;100.00;94439.56;5001365;28;20133;-89
2022/08/06 05:09:04;;;;;;;9.07;2.97;;;;;;;22.95;100.00;94434.66;5001266;28;20052;-90
2022/08/06 05:11:40;;;;;;;6.25;3.00;;;;;;;23.23;100.00;94435.72;5001091;28;20094;-90
2022/08/06 05:14:10;;;;;;;4.30;2.70;;;;;;;23.16;100.00;94437.06;5017084;28;20034;-91
2022/08/06 05:16:38;;;;;;;6.32;2.90;;;;;;;23.10;100.00;94437.72;5000548;28;20033;-90
2022/08/06 05:19:08;;;;;;;49.40;5.65;;;;;;;23.01;100.00;94438.66;5000918;28;20032;-90
2022/08/06 05:21:36;;;;;;;6.57;3.15;;;;;;;23.08;100.00;94445.28;5016821;28;20120;-89
2022/08/06 05:24:02;;;;;;;8.27;3.17;;;;;;;23.43;100.00;94442.69;5000703;28;20026;-87
2022/08/06 05:26:28;;;;;;;46.97;6.60;;;;;;;23.46;100.00;94441.22;5000973;28;20026;-88
2022/08/06 05:28:53;;;;;;;30.65;5.25;;;;;;;23.61;100.00;94441.53;5000680;28;20164;-90
2022/08/06 05:31:38;;;;;;;26.73;4.55;;;;;;;23.42;100.00;94451.06;5016775;28;20029;-89
2022/08/06 05:34:05;;;;;;;6.47;2.95;;;;;;;23.66;100.00;94439.38;5024200;28;20116;-88
2022/08/06 05:36:30;;;;;;;8.70;3.20;;;;;;;23.64;100.00;94446.19;5036449;28;20029;-89
2022/08/06 05:38:59;;;;;;;9.75;2.97;;;;;;;23.60;100.00;94446.13;5037676;28;20036;-89
2022/08/06 05:41:24;;;;;;;7.65;3.22;;;;;;;23.96;100.00;94436.16;5036624;28;20520;-89
2022/08/06 05:43:50;;;;;;;17.75;3.47;;;;;;;24.11;100.00;94447.19;5036523;28;20033;-89
2022/08/06 05:46:18;;;;;;;9.27;3.47;;;;;;;24.39;100.00;94440.81;5036546;28;20083;-91
2022/08/06 05:49:13;;;;;;;5.38;2.67;;;;;;;24.55;100.00;94448.78;5020054;28;20026;-90
2022/08/06 05:51:51;;;;;;;5.63;3.47;;;;;;;24.64;100.00;94441.28;5015016;28;20465;-88
2022/08/06 05:54:26;;;;;;;31.02;4.35;;;;;;;24.71;100.00;94444.09;5037197;28;20025;-90
2022/08/06 05:57:18;;;;;;;9.98;2.80;;;;;;;24.98;100.00;94443.41;5037285;28;20029;-89
2022/08/06 05:59:51;;;;;;;29.65;4.15;;;;;;;24.99;100.00;94451.09;5017989;28;20359;-91
2022/08/06 06:02:18;;;;;;;12.10;3.67;;;;;;;25.18;99.05;94449.47;5036090;28;20099;-90
2022/08/06 06:04:46;;;;;;;5.50;2.67;;;;;;;25.23;100.00;94441.09;5019889;28;20435;-89
2022/08/06 06:07:13;;;;;;;95.47;8.68;;;;;;;25.43;100.00;94451.75;5036158;28;20029;-90
2022/08/06 06:09:41;;;;;;;6.00;2.90;;;;;;;25.24;100.00;94448.00;5019670;28;20131;-90
2022/08/06 06:12:07;;;;;;;3.85;2.53;;;;;;;25.29;100.00;94451.53;5035778;28;20071;-89
2022/08/06 06:14:38;;;;;;;3.65;2.60;;;;;;;25.64;100.00;94453.22;5019695;28;20025;-89
2022/08/06 06:17:17;;;;;;;7.45;2.55;;;;;;;25.53;100.00;94451.16;5035771;28;20057;-89
2022/08/06 06:20:13;;;;;;;4.07;2.90;;;;;;;25.57;100.00;94463.88;5035931;28;20041;-89
2022/08/06 06:23:04;;;;;;;3.83;2.63;;;;;;;25.74;100.00;94460.66;5036592;28;20443;-89
2022/08/06 06:25:53;;;;;;;4.93;2.80;;;;;;;25.90;97.69;94463.16;5020148;28;20036;-88
2022/08/06 06:28:43;;;;;;;9.60;3.10;;;;;;;25.75;100.00;94467.56;5035220;28;20033;-89
2022/08/06 06:31:44;;;;;;;4.95;2.67;;;;;;;26.05;98.25;94466.03;5035748;28;20316;-89
2022/08/06 06:34:46;;;;;;;5.68;2.65;;;;;;;25.86;100.00;94466.94;5036666;28;20037;-88
2022/08/06 06:37:35;;;;;;;4.22;2.70;;;;;;;26.12;99.70;94463.44;5013699;28;20041;-89
2022/08/06 06:40:28;;;;;;;5.75;2.75;;;;;;;26.05;100.00;94464.09;5019551;28;20036;-89
2022/08/06 06:43:00;;;;;;;4.97;2.53;;;;;;;26.28;98.71;94465.94;5035671;28;20118;-87
2022/08/06 06:46:05;;;;;;;;;;;;;;;;;;;;;
2022/08/06 06:48:47;;;;;;;4.57;2.17;;;;;;;26.36;100.00;94467.56;5019868;28;20048;-88
2022/08/06 06:51:29;;;;;;;3.60;2.55;;;;;;;26.27;100.00;94477.84;5017100;28;20057;-89
2022/08/06 06:53:55;;;;;;;9.57;2.88;;;;;;;26.54;98.97;94477.75;5012366;28;20065;-88
2022/08/06 06:56:27;;;;;;;7.20;3.00;;;;;;;26.78;95.69;94476.47;5016029;28;20026;-89
2022/08/06 06:59:01;;;;;;;3.33;2.65;;;;;;;26.93;93.51;94471.25;4999811;28;20030;-89
2022/08/06 07:01:30;;;;;;;4.53;2.60;;;;;;;26.86;95.64;94468.44;5015897;28;20036;-89
2022/08/06 07:03:59;;;;;;;7.88;2.40;;;;;;;27.20;93.35;94466.47;4999899;28;20033;-87
2022/08/06 07:06:26;;;;;;;3.30;2.20;;;;;;;27.28;91.98;94466.53;5015807;28;20026;-87
2022/08/06 07:08:52;;;;;;;5.55;2.50;;;;;;;27.34;87.97;94463.13;5019639;28;20312;-87
2022/08/06 07:11:21;;;;;;;5.80;2.50;;;;;;;27.42;88.62;94465.88;5019244;28;20037;-87
2022/08/06 07:13:47;;;;;;;5.53;2.80;;;;;;;27.67;87.87;94463.34;5034707;28;20063;-88
2022/08/06 07:16:14;;;;;;;8.50;2.58;;;;;;;27.46;88.17;94463.97;5001985;28;20446;-88
2022/08/06 07:18:42;;;;;;;3.35;2.70;;;;;;;27.58;87.14;94463.69;5035412;28;20030;-88
2022/08/06 07:21:07;;;;;;;2.88;2.38;;;;;;;27.79;90.71;94465.75;5035087;28;20435;-89
2022/08/06 07:23:33;;;;;;;4.32;2.67;;;;;;;27.98;91.14;94468.53;5036530;28;20049;-88
2022/08/06 07:25:59;;;;;;;3.42;2.35;;;;;;;28.22;85.77;94472.50;5019114;28;20025;-87
2022/08/06 07:28:25;;;;;;;5.15;2.60;;;;;;;28.11;83.64;94467.06;5035344;28;20342;-87
2022/08/06 07:30:51;;;;;;;4.25;2.97;;;;;;;28.22;79.44;94475.22;5035333;28;20030;-87
2022/08/06 07:33:16;;;;;;;3.75;2.80;;;;;;;27.94;75.83;94469.28;5035224;28;20037;-88
2022/08/06 07:35:44;;;;;;;7.00;2.33;;;;;;;27.72;79.60;94464.94;5035565;28;20030;-88
2022/08/06 07:38:12;;;;;;;5.85;3.00;;;;;;;27.79;79.97;94476.50;5018965;28;20037;-87
2022/08/06 07:40:42;;;;;;;6.63;2.50;;;;;;;27.93;77.79;94477.72;5038147;28;20036;-87
2022/08/06 07:43:20;;;;;;;5.95;2.50;;;;;;;28.28;76.05;94478.31;5038899;28;20035;-87
2022/08/06 07:45:47;;;;;;;6.78;2.80;;;;;;;28.01;75.38;94473.94;5038873;28;20037;-88
2022/08/06 07:48:14;;;;;;;4.63;2.40;;;;;;;28.44;77.06;94476.06;5038809;28;20036;-87
2022/08/06 07:50:42;;;;;;;6.35;2.60;;;;;;;28.65;73.13;94471.88;5039053;28;20036;-87
2022/08/06 07:53:10;;;;;;;4.95;2.58;;;;;;;28.69;75.47;94475.34;5023311;28;20128;-88
2022/08/06 07:55:36;;;;;;;8.10;3.00;;;;;;;28.48;74.74;94478.78;5040312;28;20103;-87
2022/08/06 07:58:03;;;;;;;4.93;2.38;;;;;;;28.94;74.64;94477.34;5039791;28;20351;-87
2022/08/06 08:00:28;;;;;;;5.38;2.30;;;;;;;29.10;73.12;94478.91;5038698;28;20025;-87
2022/08/06 08:08:24;;;;;;;6.65;2.70;;;;;;;29.55;72.12;94475.81;5038722;28;20040;-87
2022/08/06 08:10:54;;;;;;;5.63;2.50;;;;;;;29.73;69.88;94478.50;5038410;28;20087;-86
2022/08/06 08:13:21;;;;;;;6.30;2.55;;;;;;;29.77;69.51;94482.00;5037933;28;20423;-87
2022/08/06 08:15:48;;;;;;;4.15;2.42;;;;;;;29.91;66.50;94487.34;5021986;28;20330;-87
2022/08/06 08:18:16;;;;;;;8.13;2.60;;;;;;;29.69;65.42;94483.16;5021979;28;20084;-87
2022/08/06 08:20:43;;;;;;;3.28;2.30;;;;;;;29.94;63.57;94480.38;5038354;28;20128;-88
2022/08/06 08:23:13;;;;;;;5.72;2.72;;;;;;;29.74;65.37;94472.72;5039098;28;20030;-87
2022/08/06 08:25:47;;;;;;;3.53;2.25;;;;;;;29.58;63.31;94475.06;5038170;28;20029;-88
2022/08/06 08:28:15;;;;;;;8.00;2.55;;;;;;;29.61;65.62;94474.28;5022492;28;20029;-87
2022/08/06 08:30:42;;;;;;;4.88;2.67;;;;;;;29.67;63.72;94475.44;5037996;28;20068;-89
2022/08/06 08:33:08;;;;;;;3.85;2.92;;;;;;;29.79;63.18;94476.19;5021857;28;20033;-88
2022/08/06 08:35:34;;;;;;;9.45;3.35;;;;;;;29.54;63.74;94474.28;5037650;28;20025;-86
2022/08/06 08:37:59;;;;;;;5.63;2.67;;;;;;;29.97;62.52;94482.31;5021273;28;20442;-87
2022/08/06 08:40:26;;;;;;;7.78;2.78;;;;;;;29.81;60.83;94471.94;5037943;28;20037;-87
2022/08/06 08:42:55;;;;;;;7.95;2.88;;;;;;;29.70;61.94;94477.38;5021712;28;20331;-87
2022/08/06 08:45:21;;;;;;;5.35;2.40;;;;;;;29.66;63.22;94476.59;5037821;28;20187;-87
2022/08/06 08:47:50;;;;;;;4.65;2.63;;;;;;;30.15;60.19;94479.59;5037447;28;20052;-87
2022/08/06 08:50:27;;;;;;;6.47;2.40;;;;;;;30.24;61.55;94476.47;5037345;28;20360;-88
2022/08/06 08:53:02;;;;;;;6.90;2.35;;;;;;;30.60;60.75;94484.41;5037422;28;20029;-86
2022/08/06 08:55:27;;;;;;;4.00;2.88;;;;;;;30.30;57.68;94477.59;5037276;28;20445;-87
2022/08/06 08:57:55;;;;;;;3.17;2.42;;;;;;;30.24;59.37;94481.09;5037661;28;20033;-87
2022/08/06 09:00:21;;;;;;;5.85;2.47;;;;;;;30.56;58.73;94483.66;5021037;28;20401;-87
2022/08/06 09:02:46;;;;;;;5.05;2.50;;;;;;;30.33;58.48;94484.13;5037380;28;20033;-87
2022/08/06 09:05:12;;;;;;;3.58;2.28;;;;;;;30.51;59.37;94484.06;5020859;28;20036;-89
2022/08/06 09:07:39;;;;;;;4.13;2.40;;;;;;;30.47;60.03;94486.03;5034734;28;20025;-85
2022/08/06 09:10:06;;;;;;;5.05;2.50;;;;;;;30.76;57.74;94483.19;5018388;28;20026;-87
2022/08/06 09:12:33;;;;;;;5.80;2.58;;;;;;;30.46;57.88;94484.47;5017721;28;20026;-88
2022/08/06 09:15:03;;;;;;;3.00;2.40;;;;;;;30.40;58.49;94481.41;5031332;28;20025;-88
2022/08/06 09:17:31;;;;;;;5.22;2.30;;;;;;;30.19;59.25;94479.56;5037197;28;20040;-88
2022/08/06 09:19:59;;;;;;;4.78;2.42;;;;;;;30.21;58.02;94474.53;5021058;28;20029;-87
2022/08/06 09:22:25;;;;;;;6.75;2.25;;;;;;;30.30;57.55;94471.41;5021096;28;20044;-87
2022/08/06 09:24:50;;;;;;;4.30;2.30;;;;;;;30.56;54.25;94480.97;5020314;28;20029;-87
2022/08/06 09:27:17;;;;;;;4.55;2.40;;;;;;;30.58;53.41;94472.44;5020581;28;20393;-87
2022/08/06 09:29:54;;;;;;;4.47;3.40;;;;;;;30.59;52.34;94477.47;5020300;28;20382;-86
2022/08/06 09:32:43;;;;;;;4.70;2.90;;;;;;;30.72;50.63;94474.34;5020208;28;20350;-85
2022/08/06 09:35:18;;;;;;;3.83;2.60;;;;;;;31.24;50.99;94479.03;5036466;28;20120;-86
2022/08/06 09:37:44;;;;;;;4.75;2.30;;;;;;;31.12;48.14;94482.94;5036300;28;20128;-86
2022/08/06 09:40:18;;;;;;;3.38;2.60;;;;;;;31.28;47.55;94487.13;5036381;28;20120;-89
2022/08/06 09:42:48;;;;;;;4.60;2.40;;;;;;;31.11;45.84;94486.06;5036559;28;20026;-86
2022/08/06 09:45:15;;;;;;;3.78;2.70;;;;;;;30.94;46.01;94477.69;5020340;28;20029;-85
2022/08/06 09:47:41;;;;;;;4.35;2.65;;;;;;;31.08;48.35;94476.78;5023450;28;20037;-87
2022/08/06 09:50:07;;;;;;;4.70;2.40;;;;;;;31.34;47.90;94474.69;5016494;28;20431;-86
2022/08/06 09:52:33;;;;;;;5.25;2.30;;;;;;;31.65;46.51;94472.09;5016348;28;20029;-85
2022/08/06 09:55:01;;;;;;;4.68;2.33;;;;;;;31.23;46.24;94469.38;5016368;28;20084;-87
2022/08/06 09:57:41;;;;;;;3.72;2.25;;;;;;;31.50;46.39;94473.41;5016654;28;20121;-86
2022/08/06 10:00:08;;;;;;;4.63;2.60;;;;;;;31.01;44.23;94460.63;5016348;28;20029;-86
2022/08/06 10:02:34;;;;;;;4.78;2.47;;;;;;;30.46;46.35;94470.97;5015968;28;20030;-87
2022/08/06 10:05:10;;;;;;;6.78;2.40;;;;;;;30.05;46.45;94464.16;5016551;28;20432;-87
2022/08/06 10:07:36;;;;;;;2.67;2.42;;;;;;;29.81;47.62;94480.03;5000466;28;20029;-86
2022/08/06 10:10:03;;;;;;;7.88;2.70;;;;;;;30.11;46.62;94465.31;5016755;28;20327;-86
2022/08/06 10:12:28;;;;;;;5.25;2.88;;;;;;;30.42;43.69;94462.88;5016057;28;20054;-87
2022/08/06 10:14:53;;;;;;;8.23;3.05;;;;;;;31.02;44.23;94464.88;5016013;28;20064;-86
2022/08/06 10:17:21;;;;;;;7.88;2.70;;;;;;;31.24;42.56;94465.50;4999957;28;20029;-87
2022/08/06 10:20:15;;;;;;;6.78;4.45;;;;;;;31.76;45.01;94457.69;5017303;28;20125;-86
2022/08/06 10:22:51;;;;;;;2.78;2.33;;;;;;;31.93;42.50;94459.47;5017080;28;20032;-86
2022/08/06 10:25:20;;;;;;;5.78;2.38;;;;;;;32.15;42.13;94462.69;5017401;28;20045;-87
2022/08/06 10:27:46;;;;;;;4.43;2.45;;;;;;;31.56;42.13;94463.66;5016189;28;20108;-87
2022/08/06 10:30:12;;;;;;;6.80;2.42;;;;;;;30.79;44.06;94463.47;5015905;28;20418;-87
2022/08/06 10:32:46;;;;;;;7.15;2.45;;;;;;;30.86;45.45;94459.94;5017247;28;20124;-86
2022/08/06 10:35:11;;;;;;;4.78;2.42;;;;;;;31.21;43.15;94455.47;4999766;28;20116;-87
2022/08/06 10:37:41;;;;;;;3.90;2.42;;;;;;;31.41;43.00;94450.25;5016030;28;20411;-87
2022/08/06 10:40:08;;;;;;;6.80;2.65;;;;;;;31.89;42.34;94447.91;5015972;28;20116;-86
2022/08/06 10:42:33;;;;;;;5.82;2.58;;;;;;;32.21;43.22;94446.75;4999612;28;20461;-86
2022/08/06 10:45:00;;;;;;;3.38;2.42;;;;;;;32.33;42.46;94447.41;5015756;28;20030;-87
2022/08/06 10:47:27;;;;;;;3.58;2.25;;;;;;;31.84;42.03;94446.41;5015992;28;20049;-86
2022/08/06 10:49:53;;;;;;;3.92;2.58;;;;;;;31.08;43.47;94449.00;5015609;28;20041;-86
2022/08/06 10:52:19;;;;;;;5.20;2.05;;;;;;;30.92;43.22;94446.78;5015597;28;20436;-87
2022/08/06 10:54:45;;;;;;;9.02;2.63;;;;;;;30.91;43.24;94446.00;4999488;28;20042;-86
2022/08/06 10:57:12;;;;;;;4.72;2.70;;;;;;;30.50;44.08;94441.22;5015613;28;20087;-86
2022/08/06 10:59:39;;;;;;;6.72;2.58;;;;;;;30.40;44.21;94443.59;5015598;28;20519;-86
2022/08/06 11:02:45;;;;;;;4.72;2.30;;;;;;;30.47;44.62;94442.78;5015562;28;20034;-84
2022/08/06 11:05:15;;;;;;;6.10;2.58;;;;;;;30.58;46.54;94443.50;5015548;28;20037;-84
2022/08/06 11:07:40;;;;;;;3.95;2.40;;;;;;;30.63;43.76;94439.63;5015540;28;20030;-84
2022/08/06 11:10:27;;;;;;;3.22;2.35;;;;;;;31.15;42.84;94443.50;5015670;28;20088;-84
2022/08/06 11:13:10;;;;;;;3.40;2.70;;;;;;;31.76;43.06;94439.47;5016442;28;20034;-85
2022/08/06 11:15:36;;;;;;;2.92;2.50;;;;;;;31.59;43.90;94433.84;5019748;28;20033;-84
2022/08/06 11:18:06;;;;;;;7.78;2.60;;;;;;;31.88;44.47;94433.56;5019328;28;20030;-84
2022/08/06 11:20:32;;;;;;;4.65;2.65;;;;;;;32.04;44.87;94439.63;5020425;28;20037;-85
2022/08/06 11:23:13;;;;;;;6.43;2.35;;;;;;;32.28;42.77;94433.13;5018955;28;20039;-84
2022/08/06 11:25:42;;;;;;;4.78;2.35;;;;;;;31.82;45.22;94435.22;5020259;28;20030;-84
2022/08/06 11:28:09;;;;;;;7.75;2.58;;;;;;;30.94;47.37;94428.22;5019077;28;20083;-84
2022/08/06 11:30:40;;;;;;;3.40;2.47;;;;;;;31.29;46.66;94421.00;5019004;28;20084;-84
2022/08/06 11:33:06;;;;;;;5.90;2.75;;;;;;;31.64;45.29;94416.41;5019861;28;20072;-84
2022/08/06 11:35:34;;;;;;;5.85;3.10;;;;;;;31.83;44.52;94430.53;5017271;28;20443;-84
2022/08/06 11:38:05;;;;;;;4.80;2.60;;;;;;;32.36;44.05;94423.00;5018905;28;20038;-85
2022/08/06 11:40:57;;;;;;;4.40;2.50;;;;;;;32.88;42.47;94423.78;5002634;28;20061;-84
2022/08/06 11:43:38;;;;;;;6.22;2.55;;;;;;;33.13;42.56;94426.13;5019533;28;20347;-85
2022/08/06 11:46:32;;;;;;;4.47;2.65;;;;;;;32.78;42.40;94430.13;5019988;28;20053;-84
2022/08/06 11:49:02;;;;;;;3.70;2.80;;;;;;;32.55;40.05;94423.50;5018919;28;20829;-85
2022/08/06 11:51:44;;;;;;;4.97;2.33;;;;;;;33.09;39.73;94425.44;5018444;28;20040;-86